Houston, TX

10:07 PM CDT en Agosto 27, 2014 (GMT -0500)
SE-Svc-Cntr | Change Station
CLOSE
Current Station
Estación meteorológica personal
Location: Houston, TX
Altura: 46 ft
Estaciones meteorológicas cercanas

Alt 46 ft 29.71 °N, 95.26 °W | Updated 15 seconds ago

Muy nublado
Muy nublado
82.0 ° F
Sensación térmica 89 ° F
N
1.0
Viento Variable Viento desde NO
Gusts 2.0 mph

Hoy
Alta -- | Baja -- ° F
--% Posibilidad de precipitaciones
Ayer
Alta -- | Baja -- ° F
Precip. -- pul
6:55 AM 7:48 PM
Creciente, 6% visible
Presión 29.97 pul
Visibilidad 10.0 Millas
Nubes Baja 3500 ft
Nubes dispersas 17000 ft
Muy nublado 25000 ft
Índice de calor 89 ° F
Punto de rocío 76 ° F
Humedad 82%
Precipitaciones 1.11 pul
Espesor de la nieve No disponible.
UV 0 de una escala de 12
Polen 6.10 de una escala de 12
Ozono Buena
PM2.5 Buena
Flu Activity No disponible.
METAR KHOU 280253Z 07004KT 10SM FEW035 SCT170 BKN250 27/23 A2996 RMK AO2 SLP148 T02670228 51007

More Conditions Fewer Conditions

Presión 29.97 pul
Visibilidad 10.0 Millas
Nubes Baja 3500 ft
Nubes dispersas 17000 ft
Muy nublado 25000 ft
Índice de calor 89 ° F
Punto de rocío 76 ° F
Humedad 82%
Precipitaciones 1.11 pul
Espesor de la nieve No disponible.
UV 0 de una escala de 12
Polen 6.10 de una escala de 12
Ozono Buena
PM2.5 Buena
Flu Activity No disponible.
METAR KHOU 280253Z 07004KT 10SM FEW035 SCT170 BKN250 27/23 A2996 RMK AO2 SLP148 T02670228 51007

More Conditions Fewer Conditions

10-Day Weather Forecast

Almanac

Astronomía

Aug. 27, 2014 Salida Puesta
Hora real 6:55 AM CDT 7:48 PM CDT
Crepúsculo civil 6:30 AM CDT 8:13 PM CDT
Crepúsculo náutico 6:02 AM CDT 8:42 PM CDT
Crepúsculo astronómico 5:32 AM CDT 9:11 PM CDT
Luna 8:40 AM CDT (8/27) 8:55 PM CDT (8/27)
Horas de luz 13h 42m
Horas de luz
12h 53m
Tomorrow will be 1m 41s shorter.
Creciente, 6% of the Moon is Illuminated
Hoy
Creciente
Sep 2
Cuarto creciente
Sep 8
Luna llena
Sep 15
Cuarto menguante
Sep 24
Nueva

Extremos de hoy

Máximos del estado Bajos del estado

Community

WunderPhotos

Upload Photos

1,747,888 ¡fotos cargadas!

Nearby

Calidad del aire

  Calidad del aire Índice AQ Contaminante
Ayer Moderada
OZONE
Ayer Moderada
PM2.5
Real Buena
PM2.5
Real Buena
OZONE
Miércoles Moderada
OZONE
Miércoles Buena
PM10
Jueves Buena
OZONE
Jueves Buena
PM10
Viernes Buena
OZONE
Viernes Buena
PM10
Sábado Buena
OZONE
Sábado Buena
PM10

Grosos de nieve

Estación Profundido Altura
No tenemos constancia de nieve nueva.

Actividad de terremotos

Ciudad Distance Mag. Tiempo y dato
No hay informes recientes de la actividad sísmica.
Magnitud mínima muestra es 2,5.

Temperaturas de aguas costeras

Lugar Temperatura
Eagle Point, TX 87.1 ° F
USCG Freeport, TX 86.0 ° F
Galveston Pier TX 87.1 ° F
Galveston Bay (North Jetty), TX 84.9 ° F
Rollover Pass, TX 84.0 ° F

Estaciones meteorológicas cercanas